Time;durP1;ratioP1;P1;durP2;ratioP2;P2;SDS_P1;SDS_P2;PMS_P1;PMS_P2;Temp;Humidity;BMP_temperature;BMP_pressure;BME280_temperature;BME280_humidity;BME280_pressure;Samples;Min_cycle;Max_cycle;Signal;HPM_P1;HPM_P2
2022/03/06 00:00:55;;;;;;;12.52;7.72;;;;;;;2.59;63.45;102057.94;5053419;28;20435;-71
2022/03/06 00:03:21;;;;;;;15.98;8.05;;;;;;;2.58;63.60;102061.38;5063468;28;20470;-72
2022/03/06 00:05:49;;;;;;;16.70;7.70;;;;;;;2.58;63.84;102057.06;5068021;28;20401;-72
2022/03/06 00:08:15;;;;;;;15.30;8.52;;;;;;;2.51;64.01;102059.66;5052951;28;20103;-71
2022/03/06 00:10:42;;;;;;;15.63;7.72;;;;;;;2.55;64.03;102064.81;5045171;28;20048;-71
2022/03/06 00:13:08;;;;;;;13.15;7.53;;;;;;;2.55;64.04;102059.63;5060040;28;20051;-71
2022/03/06 00:15:34;;;;;;;11.55;7.75;;;;;;;2.58;64.11;102056.22;5071721;28;20101;-71
2022/03/06 00:18:01;;;;;;;14.18;8.05;;;;;;;2.71;63.71;102058.81;5062784;28;20040;-72
2022/03/06 00:20:27;;;;;;;16.88;8.35;;;;;;;2.50;64.35;102066.53;5068434;28;20062;-71
2022/03/06 00:22:55;;;;;;;14.13;8.00;;;;;;;2.39;64.70;102058.75;5066618;28;20102;-71
2022/03/06 00:25:21;;;;;;;14.18;8.73;;;;;;;2.34;64.94;102062.19;5058078;28;20049;-71
2022/03/06 00:27:48;;;;;;;15.38;8.23;;;;;;;2.29;64.98;102062.16;5070817;28;20044;-71
2022/03/06 00:30:14;;;;;;;14.95;8.55;;;;;;;2.19;65.48;102060.41;5068989;28;20048;-71
2022/03/06 00:32:40;;;;;;;13.38;8.52;;;;;;;2.25;65.34;102057.84;5063071;28;20128;-72
2022/03/06 00:35:08;;;;;;;15.35;8.43;;;;;;;2.36;65.27;102057.88;5050136;28;20049;-72
2022/03/06 00:37:35;;;;;;;13.77;8.88;;;;;;;2.43;65.01;102055.31;5048549;28;20115;-72
2022/03/06 00:40:04;;;;;;;14.18;8.23;;;;;;;2.45;64.95;102055.31;5067839;28;20044;-72
2022/03/06 00:42:31;;;;;;;13.45;8.40;;;;;;;2.31;65.48;102052.69;5054292;28;20045;-71
2022/03/06 00:44:57;;;;;;;15.05;8.30;;;;;;;2.10;66.18;102056.94;5061942;28;20052;-71
2022/03/06 00:47:23;;;;;;;14.63;8.30;;;;;;;2.12;66.52;102065.53;5070705;28;20044;-71
2022/03/06 00:49:50;;;;;;;13.65;8.80;;;;;;;2.04;66.73;102064.66;5068782;28;20067;-71
2022/03/06 00:52:16;;;;;;;18.27;8.93;;;;;;;2.10;66.75;102065.56;5068825;28;20098;-71
2022/03/06 00:54:43;;;;;;;13.35;8.15;;;;;;;2.08;66.25;102068.97;5070274;28;20493;-71
2022/03/06 00:57:10;;;;;;;15.23;9.40;;;;;;;2.12;66.21;102071.59;5049974;28;20394;-71
2022/03/06 00:59:37;;;;;;;12.48;8.50;;;;;;;2.12;66.15;102061.25;5037721;28;20077;-71
2022/03/06 01:02:05;;;;;;;15.57;8.13;;;;;;;2.34;65.40;102060.47;5030336;28;20050;-71
2022/03/06 01:04:32;;;;;;;16.58;8.98;;;;;;;2.43;64.72;102069.97;5050306;28;20141;-71
2022/03/06 01:06:58;;;;;;;14.88;8.93;;;;;;;2.51;64.83;102070.88;5052936;28;20052;-71
2022/03/06 01:09:25;;;;;;;14.35;8.85;;;;;;;2.34;65.32;102065.63;5064869;28;20096;-71
2022/03/06 01:11:52;;;;;;;14.70;8.27;;;;;;;2.51;64.72;102068.28;5060368;28;20489;-71
2022/03/06 01:14:20;;;;;;;14.80;8.77;;;;;;;2.35;64.78;102069.09;5050562;28;20787;-71
2022/03/06 01:16:46;;;;;;;15.80;8.68;;;;;;;2.13;65.51;102075.03;5065863;28;20094;-72
2022/03/06 01:19:13;;;;;;;12.75;7.65;;;;;;;2.65;63.85;102076.94;5068911;28;20440;-71
2022/03/06 01:21:39;;;;;;;13.85;7.95;;;;;;;2.75;63.11;102067.44;5064930;28;20048;-72
2022/03/06 01:24:06;;;;;;;13.82;8.73;;;;;;;2.68;63.54;102065.72;5070447;28;20105;-71
2022/03/06 01:26:32;;;;;;;13.68;8.85;;;;;;;2.63;64.03;102068.28;5069558;28;20045;-71
2022/03/06 01:28:59;;;;;;;13.60;7.90;;;;;;;2.51;64.46;102073.47;5069117;28;20121;-71
2022/03/06 01:31:26;;;;;;;16.85;8.90;;;;;;;2.35;64.68;102074.25;5057486;28;20098;-71
2022/03/06 01:33:53;;;;;;;15.10;8.63;;;;;;;2.08;65.62;102066.38;5068853;28;20040;-71
2022/03/06 01:36:19;;;;;;;14.60;8.52;;;;;;;1.67;66.94;102072.22;5056637;28;20071;-71
2022/03/06 01:38:46;;;;;;;11.68;7.63;;;;;;;1.82;66.63;102079.19;5066520;28;20437;-72
2022/03/06 01:41:12;;;;;;;17.33;8.70;;;;;;;1.90;66.33;102078.41;5056447;28;20125;-71
2022/03/06 01:43:38;;;;;;;12.77;8.45;;;;;;;2.01;66.35;102070.69;5063172;28;20048;-71
2022/03/06 01:46:05;;;;;;;15.52;8.55;;;;;;;2.29;65.07;102079.44;5066019;28;20053;-71
2022/03/06 01:48:32;;;;;;;13.63;8.23;;;;;;;2.58;63.94;102059.66;5068504;28;20048;-71
2022/03/06 01:50:59;;;;;;;14.48;8.07;;;;;;;2.78;63.15;102059.69;5067664;28;20084;-71
2022/03/06 01:53:25;;;;;;;15.43;8.93;;;;;;;2.55;63.81;102070.00;5069692;28;20045;-71
2022/03/06 01:55:52;;;;;;;17.70;7.72;;;;;;;2.51;64.07;102067.41;5069431;28;20040;-71
2022/03/06 01:58:18;;;;;;;16.08;8.45;;;;;;;2.42;64.48;102061.34;5069285;28;20056;-72
2022/03/06 02:00:49;;;;;;;14.93;8.70;;;;;;;2.49;64.32;102058.75;5067955;28;20037;-71
2022/03/06 02:03:16;;;;;;;15.73;8.25;;;;;;;2.49;64.10;102054.44;5039049;28;20069;-71
2022/03/06 02:05:45;;;;;;;15.30;8.85;;;;;;;2.49;64.15;102061.34;5066299;28;20045;-71
2022/03/06 02:08:12;;;;;;;14.98;8.57;;;;;;;2.27;65.26;102060.44;5052993;28;20048;-71
2022/03/06 02:10:38;;;;;;;15.05;8.63;;;;;;;2.31;64.68;102070.81;5057340;28;20103;-71
2022/03/06 02:13:05;;;;;;;16.30;8.13;;;;;;;2.20;65.48;102067.31;5049316;28;20049;-71
2022/03/06 02:15:32;;;;;;;20.65;9.68;;;;;;;2.33;64.86;102052.66;5048055;28;20107;-71
2022/03/06 02:17:59;;;;;;;16.00;8.95;;;;;;;2.37;64.72;102044.94;5049257;28;20045;-71
2022/03/06 02:20:26;;;;;;;16.52;8.85;;;;;;;2.37;64.62;102054.41;5046873;28;20418;-71
2022/03/06 02:22:56;;;;;;;15.68;8.05;;;;;;;2.33;64.77;102052.66;5052920;28;20041;-71
2022/03/06 02:25:24;;;;;;;14.88;8.18;;;;;;;2.06;65.38;102055.19;5068432;28;20105;-71
2022/03/06 02:27:52;;;;;;;14.50;8.60;;;;;;;2.14;65.32;102051.78;5069232;28;20120;-72
2022/03/06 02:30:20;;;;;;;13.70;8.50;;;;;;;2.31;65.11;102051.81;5068335;28;20059;-71
2022/03/06 02:32:48;;;;;;;15.35;8.43;;;;;;;2.13;65.31;102047.47;5069165;28;20044;-71
2022/03/06 02:35:15;;;;;;;16.25;8.82;;;;;;;2.30;65.17;102055.25;5068423;28;20048;-71
2022/03/06 02:37:43;;;;;;;16.48;8.93;;;;;;;2.34;64.76;102054.41;5068696;28;20079;-71
2022/03/06 02:40:12;;;;;;;17.15;9.75;;;;;;;2.36;64.62;102045.81;5052867;28;20076;-71
2022/03/06 02:42:41;;;;;;;16.70;9.05;;;;;;;2.26;64.78;102046.63;5065635;28;20044;-71
2022/03/06 02:45:10;;;;;;;18.05;9.07;;;;;;;2.05;65.72;102048.28;5068566;28;20052;-72
2022/03/06 02:47:37;;;;;;;15.18;8.15;;;;;;;2.13;65.78;102047.47;5068876;28;20041;-72
2022/03/06 02:50:05;;;;;;;15.27;8.95;;;;;;;2.22;65.40;102049.19;5067342;28;20044;-71
2022/03/06 02:52:32;;;;;;;14.65;8.43;;;;;;;1.89;66.38;102050.78;5065451;28;20048;-72
2022/03/06 02:54:58;;;;;;;20.48;8.27;;;;;;;2.13;65.81;102051.75;5055910;28;20109;-71
2022/03/06 02:57:26;;;;;;;16.65;8.85;;;;;;;2.27;65.39;102043.19;5072241;28;20075;-71
2022/03/06 02:59:53;;;;;;;18.50;9.18;;;;;;;1.80;66.49;102045.59;5071519;28;20121;-71
2022/03/06 03:02:19;;;;;;;14.98;8.68;;;;;;;1.90;66.49;102047.34;5072511;28;20105;-71
2022/03/06 03:04:45;;;;;;;15.93;8.60;;;;;;;1.99;66.23;102038.78;5071963;28;20401;-71
2022/03/06 03:07:12;;;;;;;14.13;7.97;;;;;;;1.95;66.45;102037.91;5071031;28;20049;-71
2022/03/06 03:09:38;;;;;;;15.50;7.72;;;;;;;1.99;66.38;102036.19;5055089;28;20045;-71
2022/03/06 03:12:06;;;;;;;13.85;7.28;;;;;;;2.05;65.88;102041.38;5067981;28;20389;-71
2022/03/06 03:14:35;;;;;;;14.82;6.88;;;;;;;1.95;65.70;102047.38;5067803;28;20460;-71
2022/03/06 03:17:03;;;;;;;12.15;7.20;;;;;;;1.84;65.71;102047.34;5071766;28;20119;-71
2022/03/06 03:19:29;;;;;;;11.75;6.55;;;;;;;1.76;65.99;102045.56;5071333;28;20078;-71
2022/03/06 03:21:56;;;;;;;13.45;5.68;;;;;;;1.89;65.62;102043.03;5066490;28;20033;-71
2022/03/06 03:24:23;;;;;;;9.82;6.50;;;;;;;2.35;64.47;102030.25;5072371;28;20530;-71
2022/03/06 03:26:49;;;;;;;13.55;7.32;;;;;;;2.61;63.75;102031.19;5072299;28;20044;-71
2022/03/06 03:29:16;;;;;;;12.38;6.70;;;;;;;2.46;64.15;102033.75;5071197;28;20079;-71
2022/03/06 03:31:44;;;;;;;11.82;6.43;;;;;;;2.60;63.47;102032.03;5071143;28;20638;-71
2022/03/06 03:34:10;;;;;;;12.07;5.97;;;;;;;2.66;63.29;102032.03;5071582;28;20049;-71
2022/03/06 03:36:37;;;;;;;11.82;6.15;;;;;;;2.48;63.56;102038.94;5071929;28;20570;-71
2022/03/06 03:39:03;;;;;;;11.70;6.28;;;;;;;2.34;64.09;102038.88;5061162;28;20467;-72
2022/03/06 03:41:30;;;;;;;10.52;5.95;;;;;;;2.44;63.83;102035.44;5062061;28;20205;-72
2022/03/06 03:43:56;;;;;;;11.27;5.97;;;;;;;2.70;63.11;102038.94;5064352;28;20048;-72
2022/03/06 03:46:23;;;;;;;10.00;5.40;;;;;;;2.87;62.42;102042.44;5059644;28;20118;-72
2022/03/06 03:48:50;;;;;;;10.18;5.55;;;;;;;2.57;62.88;102041.53;5068592;28;20036;-72
2022/03/06 03:51:17;;;;;;;11.65;5.47;;;;;;;2.53;63.31;102051.00;5070973;28;20128;-72
2022/03/06 03:53:43;;;;;;;11.38;5.38;;;;;;;2.38;63.86;102048.38;5071494;28;20052;-72
2022/03/06 03:56:09;;;;;;;9.30;5.60;;;;;;;2.64;62.77;102043.25;5071432;28;20048;-72
2022/03/06 03:58:36;;;;;;;10.88;5.15;;;;;;;2.32;63.70;102057.00;5071546;28;20040;-72
2022/03/06 04:01:03;;;;;;;10.00;5.45;;;;;;;2.32;63.84;102051.84;5069748;28;20212;-72
2022/03/06 04:03:29;;;;;;;9.27;5.90;;;;;;;2.18;64.28;102057.81;5071177;28;20094;-72
2022/03/06 04:05:57;;;;;;;7.43;4.82;;;;;;;2.21;63.61;102053.53;5071100;28;20044;-72
2022/03/06 04:08:23;;;;;;;11.63;5.35;;;;;;;2.50;62.73;102063.09;5059864;28;20053;-72
2022/03/06 04:10:50;;;;;;;10.38;5.35;;;;;;;2.71;61.94;102051.03;5054593;28;20049;-72
2022/03/06 04:13:17;;;;;;;8.57;4.60;;;;;;;2.58;62.10;102049.31;5067868;28;20055;-72
2022/03/06 04:15:45;;;;;;;7.90;4.60;;;;;;;2.63;62.24;102049.28;5061206;28;20048;-72
2022/03/06 04:18:11;;;;;;;12.70;5.45;;;;;;;2.27;63.04;102050.06;5063747;28;20068;-72
2022/03/06 04:20:37;;;;;;;10.45;5.00;;;;;;;2.01;63.99;102054.28;5070035;28;20117;-72
2022/03/06 04:23:05;;;;;;;7.60;4.07;;;;;;;2.28;63.24;102051.81;5070821;28;20057;-72
2022/03/06 04:25:31;;;;;;;11.90;5.43;;;;;;;1.98;64.56;102064.63;5071191;28;20063;-72
2022/03/06 04:27:58;;;;;;;10.40;5.20;;;;;;;2.24;64.15;102053.53;5070456;28;20044;-72
2022/03/06 04:30:25;;;;;;;11.82;4.68;;;;;;;2.24;63.99;102061.28;5070223;28;20060;-72
2022/03/06 04:32:51;;;;;;;9.25;4.60;;;;;;;2.30;64.12;102069.06;5070675;28;20044;-72
2022/03/06 04:35:18;;;;;;;14.38;4.93;;;;;;;2.20;64.50;102058.69;5070674;28;20094;-72
2022/03/06 04:37:44;;;;;;;8.63;4.80;;;;;;;2.25;64.13;102067.34;5067822;28;20049;-72
2022/03/06 04:40:13;;;;;;;8.80;4.63;;;;;;;2.16;64.11;102065.56;5053676;28;20492;-72
2022/03/06 04:42:40;;;;;;;7.35;4.18;;;;;;;2.03;64.90;102070.69;5070847;28;20241;-72
2022/03/06 04:45:07;;;;;;;8.82;4.72;;;;;;;1.94;65.25;102077.56;5050669;28;20041;-72
2022/03/06 04:47:34;;;;;;;7.85;4.63;;;;;;;1.71;65.69;102081.72;5050345;28;20550;-72
2022/03/06 04:50:01;;;;;;;9.45;4.65;;;;;;;1.61;66.20;102079.09;5056487;28;20106;-72
2022/03/06 04:52:27;;;;;;;10.82;4.72;;;;;;;2.12;64.70;102070.72;5061454;28;20049;-72
2022/03/06 04:54:53;;;;;;;10.93;5.15;;;;;;;2.06;64.71;102083.66;5069899;28;20048;-72
2022/03/06 04:57:21;;;;;;;8.60;4.53;;;;;;;1.86;64.69;102091.28;5052620;28;20057;-71
2022/03/06 04:59:47;;;;;;;9.48;4.32;;;;;;;1.73;65.55;102094.69;5049594;28;20102;-71
2022/03/06 05:02:14;;;;;;;8.30;4.03;;;;;;;1.73;65.40;102089.50;5067572;28;20045;-71
2022/03/06 05:04:40;;;;;;;7.53;4.43;;;;;;;2.01;64.93;102083.63;5070100;28;20048;-71
2022/03/06 05:07:06;;;;;;;10.68;4.25;;;;;;;2.07;65.00;102095.72;5070415;28;20052;-71
2022/03/06 05:09:33;;;;;;;7.68;4.60;;;;;;;1.98;64.73;102075.84;5066474;28;20076;-71
2022/03/06 05:11:59;;;;;;;9.60;4.03;;;;;;;2.21;63.70;102082.00;5060244;28;20045;-71
2022/03/06 05:14:27;;;;;;;9.45;4.30;;;;;;;2.24;63.28;102084.59;5068825;28;20097;-71
2022/03/06 05:16:53;;;;;;;7.07;3.97;;;;;;;2.16;63.55;102090.59;5050503;28;20094;-71
2022/03/06 05:19:20;;;;;;;8.75;3.72;;;;;;;2.08;63.74;102100.03;5046995;28;20106;-71
2022/03/06 05:21:46;;;;;;;8.63;4.05;;;;;;;2.09;64.24;102094.00;5056370;28;20076;-71
2022/03/06 05:24:12;;;;;;;10.15;3.75;;;;;;;2.08;64.33;102087.97;5066521;28;20048;-71
2022/03/06 05:26:39;;;;;;;6.70;3.95;;;;;;;2.02;64.78;102085.34;5070435;28;20044;-71
2022/03/06 05:29:05;;;;;;;7.38;3.83;;;;;;;1.99;65.04;102080.16;5069259;28;20053;-71
2022/03/06 05:31:33;;;;;;;8.05;3.17;;;;;;;2.06;64.36;102081.06;5068803;28;20117;-71
2022/03/06 05:33:59;;;;;;;13.02;4.53;;;;;;;2.20;63.67;102088.00;5069569;28;20048;-71
2022/03/06 05:36:27;;;;;;;7.40;3.78;;;;;;;2.25;63.47;102081.16;5068770;28;20045;-71
2022/03/06 05:38:53;;;;;;;7.95;3.72;;;;;;;2.38;63.17;102079.44;5063824;28;20049;-71
2022/03/06 05:41:20;;;;;;;7.05;3.92;;;;;;;2.09;63.43;102084.53;5054117;28;20420;-71
2022/03/06 05:43:46;;;;;;;10.77;3.78;;;;;;;1.95;64.56;102091.34;5068424;28;20095;-71
2022/03/06 05:46:12;;;;;;;11.23;3.90;;;;;;;1.95;64.83;102088.78;5063623;28;20118;-71
2022/03/06 05:48:40;;;;;;;7.18;3.50;;;;;;;2.07;63.92;102088.81;5069468;28;20040;-71
2022/03/06 05:51:06;;;;;;;11.52;3.92;;;;;;;2.25;63.53;102080.28;5048386;28;20049;-71
2022/03/06 05:53:33;;;;;;;8.55;4.00;;;;;;;1.58;65.17;102082.53;5060329;28;20044;-71
2022/03/06 05:55:59;;;;;;;7.55;3.67;;;;;;;1.94;64.49;102082.72;5069109;28;20072;-71
2022/03/06 05:58:26;;;;;;;12.38;3.80;;;;;;;2.32;62.88;102085.47;5056384;28;20045;-71
2022/03/06 06:00:52;;;;;;;6.97;3.70;;;;;;;2.17;63.33;102089.72;5068368;28;20041;-71
2022/03/06 06:03:18;;;;;;;8.45;4.32;;;;;;;2.27;63.04;102089.75;5056763;28;20493;-71
2022/03/06 06:05:46;;;;;;;11.10;4.10;;;;;;;2.25;63.28;102086.31;5063365;28;20117;-71
2022/03/06 06:08:12;;;;;;;9.32;3.80;;;;;;;1.89;64.74;102089.59;5068795;28;20578;-71
2022/03/06 06:10:39;;;;;;;8.38;3.50;;;;;;;2.09;64.66;102086.25;5054352;28;20068;-72
2022/03/06 06:13:06;;;;;;;8.80;4.20;;;;;;;2.43;63.20;102081.22;5068420;28;20056;-72
2022/03/06 06:15:32;;;;;;;9.32;3.78;;;;;;;2.19;63.65;102090.59;5067380;28;20051;-72
2022/03/06 06:17:59;;;;;;;10.60;4.53;;;;;;;2.37;62.92;102086.34;5053922;28;20041;-72
2022/03/06 06:20:26;;;;;;;8.55;3.63;;;;;;;2.20;63.58;102082.84;5053127;28;20562;-72
2022/03/06 06:22:53;;;;;;;7.68;3.15;;;;;;;2.01;64.65;102081.03;5064738;28;20500;-71
2022/03/06 06:25:20;;;;;;;7.63;3.80;;;;;;;2.46;63.14;102090.69;5061653;28;20094;-71
2022/03/06 06:27:46;;;;;;;9.40;4.60;;;;;;;2.66;62.52;102088.16;5048780;28;20098;-71
2022/03/06 06:30:13;;;;;;;7.22;3.92;;;;;;;2.65;62.61;102084.72;5065914;28;20112;-71
2022/03/06 06:32:40;;;;;;;8.23;4.00;;;;;;;2.70;62.12;102085.56;5068605;28;20057;-71
2022/03/06 06:35:07;;;;;;;10.38;4.18;;;;;;;2.53;63.05;102083.81;5048640;28;20045;-71
2022/03/06 06:37:34;;;;;;;7.63;3.80;;;;;;;2.64;62.35;102088.16;5036546;28;20132;-71
2022/03/06 06:40:02;;;;;;;7.80;3.42;;;;;;;2.45;63.05;102094.13;5044416;28;20052;-71
2022/03/06 06:42:28;;;;;;;11.10;3.85;;;;;;;2.36;63.58;102094.13;5066573;28;20420;-71
2022/03/06 06:44:54;;;;;;;6.65;3.90;;;;;;;2.54;62.94;102098.47;5060341;28;20431;-71
2022/03/06 06:47:21;;;;;;;9.77;3.92;;;;;;;2.56;62.61;102099.34;5054591;28;20500;-71
2022/03/06 06:49:47;;;;;;;8.40;3.70;;;;;;;2.26;63.56;102094.91;5052299;28;20106;-72
2022/03/06 06:52:13;;;;;;;8.15;3.78;;;;;;;2.70;62.43;102102.81;5064730;28;20071;-72
2022/03/06 06:54:40;;;;;;;8.18;3.58;;;;;;;2.81;61.92;102099.41;5044832;28;20099;-71
2022/03/06 06:57:07;;;;;;;6.32;3.17;;;;;;;2.70;61.86;102100.22;5036170;28;20048;-71
2022/03/06 06:59:34;;;;;;;7.72;3.65;;;;;;;2.73;61.57;102098.53;5057053;28;20389;-71
2022/03/06 07:02:00;;;;;;;10.23;3.55;;;;;;;2.77;61.25;102122.72;5067949;28;20463;-71
2022/03/06 07:04:26;;;;;;;8.38;3.95;;;;;;;2.66;61.67;102125.25;5068250;28;20105;-71
2022/03/06 07:06:53;;;;;;;11.60;4.05;;;;;;;2.99;61.42;102113.25;5059455;28;20492;-71
2022/03/06 07:09:19;;;;;;;8.27;3.70;;;;;;;3.19;60.95;102121.91;5066667;28;20102;-71
2022/03/06 07:11:45;;;;;;;6.75;3.58;;;;;;;3.14;61.38;102113.28;5060703;28;20106;-71
2022/03/06 07:14:13;;;;;;;7.25;3.97;;;;;;;2.81;61.78;102120.13;5064275;28;20102;-71
2022/03/06 07:16:39;;;;;;;8.27;4.07;;;;;;;2.54;62.21;102130.41;5067971;28;20443;-71
2022/03/06 07:19:06;;;;;;;7.80;3.70;;;;;;;2.50;62.44;102128.69;5067484;28;20048;-71
2022/03/06 07:21:32;;;;;;;9.20;3.38;;;;;;;2.42;62.77;102127.78;5067304;28;20072;-71
2022/03/06 07:23:58;;;;;;;8.13;4.03;;;;;;;2.48;62.31;102132.97;5048928;28;20520;-72
2022/03/06 07:26:25;;;;;;;7.88;3.70;;;;;;;2.62;62.63;102127.84;5047776;28;20049;-71
2022/03/06 07:28:51;;;;;;;5.70;3.15;;;;;;;2.82;62.22;102134.81;5049787;28;20079;-71
2022/03/06 07:31:19;;;;;;;6.00;3.60;;;;;;;2.65;62.93;102146.00;5067082;28;20501;-71
2022/03/06 07:33:45;;;;;;;6.35;3.50;;;;;;;2.74;62.22;102143.41;5048341;28;20049;-71
2022/03/06 07:36:11;;;;;;;6.72;3.55;;;;;;;2.87;62.17;102140.88;5065506;28;20057;-71
2022/03/06 07:38:38;;;;;;;6.50;4.13;;;;;;;3.19;61.53;102132.25;5057616;28;20558;-71
2022/03/06 07:41:04;;;;;;;7.53;3.30;;;;;;;2.81;60.40;102137.38;5050568;28;20639;-71
2022/03/06 07:43:31;;;;;;;11.02;3.63;;;;;;;2.96;60.53;102136.56;5056869;28;20049;-71
2022/03/06 07:45:57;;;;;;;5.25;3.25;;;;;;;2.96;60.46;102140.00;5070209;28;20041;-71
2022/03/06 07:48:25;;;;;;;16.20;5.95;;;;;;;2.85;60.98;102141.72;5071713;28;20048;-71
2022/03/06 07:50:51;;;;;;;10.52;4.68;;;;;;;3.08;60.16;102145.22;5070855;28;20036;-71
2022/03/06 07:53:17;;;;;;;10.48;5.00;;;;;;;3.09;60.26;102146.09;5069766;28;20044;-71
2022/03/06 07:55:44;;;;;;;9.13;4.32;;;;;;;3.37;59.77;102147.81;5054945;28;20097;-70
2022/03/06 07:58:10;;;;;;;6.85;3.78;;;;;;;3.10;60.51;102143.50;5071963;28;20052;-70
2022/03/06 08:00:36;;;;;;;10.05;3.80;;;;;;;2.90;59.96;102151.25;5057916;28;20044;-70
2022/03/06 08:03:03;;;;;;;7.72;3.55;;;;;;;2.85;59.69;102163.31;5065421;28;20103;-70
2022/03/06 08:05:31;;;;;;;8.95;3.60;;;;;;;3.11;59.37;102147.81;5061766;28;20177;-70
2022/03/06 08:07:57;;;;;;;12.55;3.13;;;;;;;3.09;58.40;102152.13;5049211;28;20155;-70
2022/03/06 08:10:24;;;;;;;7.22;3.17;;;;;;;3.20;58.32;102150.41;5047222;28;20122;-70
2022/03/06 08:12:50;;;;;;;5.15;2.60;;;;;;;3.16;57.84;102142.63;5053099;28;20094;-70
2022/03/06 08:15:17;;;;;;;4.78;2.20;;;;;;;3.26;58.14;102152.13;5067526;28;20071;-70
2022/03/06 08:17:43;;;;;;;5.07;2.28;;;;;;;3.45;57.44;102143.50;5070911;28;20083;-70
2022/03/06 08:20:10;;;;;;;6.65;2.78;;;;;;;3.34;57.53;102148.69;5070084;28;20098;-71
2022/03/06 08:22:38;;;;;;;6.07;2.40;;;;;;;3.35;57.26;102147.84;5069614;28;20098;-70
2022/03/06 08:25:06;;;;;;;8.25;2.92;;;;;;;3.07;56.13;102146.06;5070144;28;20044;-70
2022/03/06 08:27:33;;;;;;;8.98;3.70;;;;;;;2.93;56.46;102160.72;5070160;28;20064;-70
2022/03/06 08:30:00;;;;;;;5.07;2.53;;;;;;;3.00;56.18;102165.06;5070001;28;20065;-70
2022/03/06 08:32:26;;;;;;;5.75;2.30;;;;;;;3.16;55.97;102168.56;5057047;28;20118;-70
2022/03/06 08:34:53;;;;;;;4.35;2.33;;;;;;;2.96;56.32;102170.25;5070152;28;20048;-71
2022/03/06 08:37:19;;;;;;;7.47;2.55;;;;;;;3.13;55.87;102172.00;5057449;28;20045;-71
2022/03/06 08:39:48;;;;;;;6.07;2.40;;;;;;;3.09;55.46;102177.19;5067841;28;20056;-71
2022/03/06 08:42:15;;;;;;;3.50;2.03;;;;;;;3.01;55.08;102187.53;5050618;28;20056;-71
2022/03/06 08:44:41;;;;;;;3.95;1.90;;;;;;;3.15;55.23;102182.38;5069578;28;20123;-71
2022/03/06 08:47:09;;;;;;;3.95;2.13;;;;;;;2.90;55.72;102192.69;5070322;28;20098;-71
2022/03/06 08:49:35;;;;;;;3.60;1.70;;;;;;;3.18;55.25;102182.41;5060966;28;20468;-71
2022/03/06 08:52:02;;;;;;;4.00;1.80;;;;;;;3.00;55.16;102185.78;5069008;28;20048;-71
2022/03/06 08:54:28;;;;;;;5.32;1.90;;;;;;;2.72;56.28;102189.19;5048322;28;20049;-71
2022/03/06 08:56:55;;;;;;;4.30;2.03;;;;;;;2.87;55.50;102187.50;5049797;28;20118;-71
2022/03/06 08:59:22;;;;;;;3.15;1.63;;;;;;;2.89;55.54;102190.94;5049277;28;20049;-71
2022/03/06 09:01:48;;;;;;;3.58;1.60;;;;;;;2.97;55.40;102187.50;5049348;28;20446;-71
2022/03/06 09:04:15;;;;;;;6.00;2.05;;;;;;;3.45;54.47;102177.22;5029633;28;20111;-71
2022/03/06 09:06:42;;;;;;;4.05;1.80;;;;;;;3.44;54.08;102178.94;5037167;28;20572;-71
2022/03/06 09:09:08;;;;;;;4.68;1.90;;;;;;;3.53;54.14;102180.69;5068499;28;20496;-71
2022/03/06 09:11:35;;;;;;;2.83;1.60;;;;;;;3.49;54.36;102183.28;5045174;28;20157;-71
2022/03/06 09:14:02;;;;;;;3.13;1.60;;;;;;;3.55;54.59;102184.13;5052768;28;20045;-71
2022/03/06 09:16:29;;;;;;;4.97;1.85;;;;;;;3.64;53.32;102176.34;5054784;28;20492;-71
2022/03/06 09:18:55;;;;;;;3.72;1.67;;;;;;;4.08;52.37;102180.63;5057321;28;20044;-71
2022/03/06 09:21:22;;;;;;;3.60;1.48;;;;;;;4.01;50.98;102178.91;5054038;28;20099;-71
2022/03/06 09:23:48;;;;;;;4.63;1.80;;;;;;;4.04;50.95;102174.56;5057775;28;20040;-71
2022/03/06 09:26:14;;;;;;;3.85;1.52;;;;;;;4.17;50.74;102178.88;5056964;28;20091;-71
2022/03/06 09:28:41;;;;;;;4.50;1.60;;;;;;;3.87;51.75;102177.22;5066647;28;20094;-72
2022/03/06 09:31:08;;;;;;;4.03;1.77;;;;;;;3.68;51.38;102175.50;5048056;28;20106;-71
2022/03/06 09:33:35;;;;;;;3.35;1.55;;;;;;;3.40;52.24;102165.97;5034822;28;20552;-72
2022/03/06 09:36:01;;;;;;;5.53;2.33;;;;;;;3.50;52.99;102172.03;5045810;28;20151;-71
2022/03/06 09:38:28;;;;;;;5.18;2.20;;;;;;;3.75;52.44;102174.63;5030127;28;20072;-71
2022/03/06 09:40:56;;;;;;;4.03;1.70;;;;;;;3.61;51.19;102171.19;5035753;28;20069;-71
2022/03/06 09:43:22;;;;;;;15.65;2.20;;;;;;;3.68;51.84;102179.81;5062059;28;20097;-71
2022/03/06 09:45:49;;;;;;;5.78;2.72;;;;;;;3.52;51.08;102172.88;5047695;28;20459;-71
2022/03/06 09:48:18;;;;;;;2.55;1.35;;;;;;;3.29;51.90;102171.16;5057404;28;20051;-71
2022/03/06 09:50:45;;;;;;;5.10;1.58;;;;;;;2.92;50.42;102185.78;5060410;28;20455;-71
2022/03/06 09:53:11;;;;;;;7.00;1.83;;;;;;;2.99;50.45;102173.72;5068457;28;20072;-71
2022/03/06 09:55:37;;;;;;;6.03;1.77;;;;;;;2.58;50.89;102188.25;5068963;28;20097;-71
2022/03/06 09:58:04;;;;;;;8.88;2.15;;;;;;;2.66;52.06;102182.22;5068663;28;20048;-71
2022/03/06 10:00:30;;;;;;;4.75;1.70;;;;;;;2.71;51.18;102183.13;5064071;28;20076;-71
2022/03/06 10:02:59;;;;;;;3.97;1.90;;;;;;;2.89;50.95;102184.91;5048624;28;20099;-71
2022/03/06 10:05:29;;;;;;;7.97;1.65;;;;;;;2.92;50.06;102190.09;5047499;28;20052;-71
2022/03/06 10:08:15;;;;;;;7.00;1.70;;;;;;;2.69;50.10;102190.03;5055968;28;20067;-71
2022/03/06 10:10:42;;;;;;;4.00;1.80;;;;;;;2.58;50.14;102194.31;5057606;28;22061;-71
2022/03/06 10:13:08;;;;;;;4.22;1.75;;;;;;;2.68;50.17;102193.47;5059198;28;20056;-71
2022/03/06 10:15:57;;;;;;;3.88;1.98;;;;;;;2.73;49.22;102194.38;5050729;28;20067;-66
2022/03/06 10:18:23;;;;;;;3.22;1.77;;;;;;;2.90;49.81;102192.69;5056914;28;20487;-66
2022/03/06 10:20:51;;;;;;;7.68;2.20;;;;;;;3.22;50.84;102186.69;5056699;28;20044;-66
2022/03/06 10:23:24;;;;;;;5.35;1.95;;;;;;;3.05;48.67;102196.19;5067811;28;20094;-66
2022/03/06 10:26:00;;;;;;;3.45;2.10;;;;;;;3.07;49.40;102191.88;5061730;28;20054;-66
2022/03/06 10:28:27;;;;;;;4.75;2.20;;;;;;;3.04;48.71;102184.06;5058377;28;20451;-66
2022/03/06 10:30:53;;;;;;;4.82;1.98;;;;;;;2.75;49.83;102202.13;5047780;28;20094;-66
2022/03/06 10:33:21;;;;;;;3.97;1.95;;;;;;;2.84;49.74;102190.09;5049932;28;20072;-66
2022/03/06 10:35:50;;;;;;;4.00;2.40;;;;;;;3.08;49.32;102185.81;5068494;28;20110;-66
2022/03/06 10:38:23;;;;;;;2.95;1.77;;;;;;;3.11;48.00;102188.41;5068235;28;20060;-66
2022/03/06 10:40:50;;;;;;;3.03;2.00;;;;;;;3.18;48.43;102187.59;5060219;28;20044;-67
2022/03/06 10:43:22;;;;;;;3.20;1.90;;;;;;;3.21;49.93;102182.41;5065397;28;20098;-66
2022/03/06 10:45:50;;;;;;;3.72;1.80;;;;;;;3.26;49.31;102185.84;5061198;28;20048;-66
2022/03/06 10:48:17;;;;;;;3.45;1.70;;;;;;;3.09;48.32;102188.41;5068307;28;20056;-67
2022/03/06 10:50:44;;;;;;;3.83;1.98;;;;;;;3.16;49.82;102186.69;5067443;28;20114;-67
2022/03/06 10:53:18;;;;;;;4.20;2.10;;;;;;;3.45;49.34;102187.59;5036203;28;20076;-67
2022/03/06 10:55:46;;;;;;;3.78;1.80;;;;;;;3.30;49.59;102192.75;5036401;28;20126;-66
2022/03/06 10:58:14;;;;;;;5.28;2.10;;;;;;;3.66;49.03;102186.75;5066113;28;20098;-66
2022/03/06 11:00:41;;;;;;;4.78;2.00;;;;;;;3.22;48.54;102179.78;5087400;28;20039;-66
2022/03/06 11:03:09;;;;;;;3.47;1.60;;;;;;;3.07;48.95;102184.09;5072756;28;20096;-66
2022/03/06 11:05:39;;;;;;;2.78;1.42;;;;;;;3.24;48.89;102193.63;5063086;28;20048;-66
2022/03/06 11:08:08;;;;;;;3.38;1.40;;;;;;;3.46;49.06;102184.16;5064571;28;20072;-66
2022/03/06 11:10:35;;;;;;;3.33;1.30;;;;;;;3.50;48.73;102185.88;5043098;28;20389;-67
2022/03/06 11:13:03;;;;;;;3.88;1.58;;;;;;;3.57;48.56;102192.78;5049219;28;20045;-66
2022/03/06 11:15:29;;;;;;;3.47;1.40;;;;;;;3.57;48.23;102186.72;5068027;28;20059;-67
2022/03/06 11:18:00;;;;;;;2.85;1.30;;;;;;;3.42;49.33;102185.88;5057750;28;20063;-66
2022/03/06 11:20:27;;;;;;;6.18;2.20;;;;;;;3.29;47.87;102193.63;5051559;28;20052;-66
2022/03/06 11:23:01;;;;;;;20.00;9.23;;;;;;;3.52;48.72;102189.31;5051368;28;20119;-66
2022/03/06 11:25:30;;;;;;;14.23;6.50;;;;;;;3.66;48.39;102185.00;5051523;28;20505;-66
2022/03/06 11:28:13;;;;;;;14.07;5.60;;;;;;;4.01;47.28;102190.16;5039547;28;20041;-66